createdAt,value
2022-11-10T07:31:17.458Z,125.03
2022-11-10T07:36:30.126Z,116.50
2022-11-10T07:41:42.599Z,101.90
2022-11-10T07:46:58.769Z,106.07
2022-11-10T07:52:10.835Z,108.18
2022-11-10T07:57:23.602Z,101.93
2022-11-10T08:02:35.542Z,98.80
2022-11-10T08:07:46.754Z,98.80
2022-11-10T08:13:00.399Z,110.10
2022-11-10T08:18:21.144Z,100.38
2022-11-10T08:23:33.334Z,104.80
2022-11-10T08:28:45.806Z,112.50
2022-11-10T08:33:57.735Z,103.53
2022-11-10T08:39:09.421Z,95.18
2022-11-10T08:44:21.587Z,104.20
2022-11-10T08:49:32.314Z,107.75
2022-11-10T08:54:44.116Z,99.38
2022-11-10T08:59:55.882Z,99.53
2022-11-10T09:05:08.591Z,101.72
2022-11-10T09:10:21.316Z,98.90
2022-11-10T09:15:35.051Z,98.03
2022-11-10T09:20:47.351Z,94.30
2022-11-10T09:25:59.536Z,95.53
2022-11-10T09:31:11.389Z,84.90
2022-11-10T09:36:23.137Z,93.03
2022-11-10T09:41:39.825Z,89.10
2022-11-10T09:46:58.868Z,91.82
2022-11-10T09:52:11.572Z,91.05
2022-11-10T09:57:26.286Z,86.63
2022-11-10T10:02:46.354Z,86.82
2022-11-10T10:08:00.966Z,83.13
2022-11-10T10:13:32.210Z,72.65
2022-11-10T10:19:22.041Z,59.70
2022-11-10T10:24:34.558Z,56.97
2022-11-10T10:29:47.250Z,50.70
2022-11-10T10:34:59.589Z,52.03
2022-11-10T10:40:15.848Z,49.33
2022-11-10T10:45:32.506Z,44.42
2022-11-10T10:50:46.923Z,42.13
2022-11-10T10:56:00.217Z,44.53
2022-11-10T11:01:17.375Z,38.83
2022-11-10T11:06:31.187Z,32.00
2022-11-10T11:11:45.521Z,29.80
2022-11-10T11:17:13.360Z,30.92
2022-11-10T11:22:24.666Z,26.02
2022-11-10T11:28:10.835Z,28.35
2022-11-10T11:33:34.509Z,26.35
2022-11-10T11:39:19.930Z,33.50
2022-11-10T11:44:55.067Z,38.30
2022-11-10T11:50:34.546Z,34.85
2022-11-10T11:56:07.601Z,34.97
2022-11-10T12:01:51.722Z,35.60
2022-11-10T12:07:15.068Z,36.75
2022-11-10T12:12:48.137Z,37.50
2022-11-10T12:18:20.063Z,40.20
2022-11-10T12:23:56.506Z,37.42
2022-11-10T12:29:17.263Z,37.00
2022-11-10T12:34:37.810Z,37.97
2022-11-10T12:40:27.298Z,41.13
2022-11-10T12:45:44.895Z,39.97
2022-11-10T12:51:13.685Z,39.42
2022-11-10T12:56:45.338Z,40.92
2022-11-10T13:02:23.542Z,37.08
2022-11-10T13:07:36.799Z,35.90
2022-11-10T13:13:23.058Z,37.25
2022-11-10T13:18:34.813Z,34.40
2022-11-10T13:23:48.770Z,33.28
2022-11-10T13:29:21.555Z,31.02
2022-11-10T13:34:40.302Z,33.43
2022-11-10T13:39:53.685Z,30.95
2022-11-10T13:45:43.278Z,28.55
2022-11-10T13:51:32.920Z,28.63
2022-11-10T13:57:09.749Z,29.67
2022-11-10T14:02:41.944Z,29.60
2022-11-10T14:07:54.698Z,29.52
2022-11-10T14:13:12.783Z,29.50
2022-11-10T14:18:28.727Z,26.55
2022-11-10T14:23:50.189Z,27.42
2022-11-10T14:29:21.939Z,28.20
2022-11-10T14:34:37.262Z,29.55
2022-11-10T14:39:49.182Z,31.00
2022-11-10T14:45:26.856Z,29.02
2022-11-10T14:50:41.818Z,26.08
2022-11-10T14:55:55.108Z,33.97
2022-11-10T15:06:18.755Z,39.47
2022-11-10T15:12:00.335Z,42.13
2022-11-10T15:17:18.393Z,42.58
2022-11-10T15:22:37.200Z,34.75
2022-11-10T15:28:20.208Z,29.58
2022-11-10T15:33:34.448Z,32.20
2022-11-10T15:39:01.872Z,30.33
2022-11-10T15:44:24.915Z,33.47
2022-11-10T15:54:48.272Z,32.55
2022-11-10T16:00:00.915Z,33.58
2022-11-10T16:05:14.536Z,31.75
2022-11-10T16:10:29.009Z,34.90
2022-11-10T16:15:41.944Z,35.20
2022-11-10T16:20:54.362Z,37.33
2022-11-10T16:26:08.464Z,36.35
2022-11-10T16:31:25.143Z,39.20
2022-11-10T16:36:36.575Z,38.22
2022-11-10T16:41:48.852Z,39.53
2022-11-10T16:47:01.508Z,39.00
2022-11-10T16:52:16.269Z,39.30
2022-11-10T16:57:27.691Z,41.20
2022-11-10T17:02:41.187Z,48.05
2022-11-10T17:07:53.909Z,45.20
2022-11-10T17:13:06.202Z,47.78
2022-11-10T17:18:19.662Z,43.00
2022-11-10T17:23:31.404Z,45.22
2022-11-10T17:28:43.458Z,43.33
2022-11-10T17:33:59.010Z,46.85
2022-11-10T17:39:15.091Z,45.20
2022-11-10T17:44:26.505Z,52.95
2022-11-10T17:49:39.098Z,49.22
2022-11-10T17:54:51.155Z,46.05
2022-11-10T18:00:02.604Z,48.45
2022-11-10T18:05:18.143Z,45.22
2022-11-10T18:10:30.552Z,46.38
2022-11-10T18:15:44.431Z,49.38
2022-11-10T18:20:58.033Z,47.20
2022-11-10T18:26:10.219Z,44.50
2022-11-10T18:31:22.218Z,48.20
2022-11-10T18:36:34.284Z,47.10
2022-11-10T18:41:53.499Z,47.95
2022-11-10T18:47:05.364Z,49.40
2022-11-10T18:52:17.979Z,42.87
2022-11-10T18:57:30.062Z,64.30
2022-11-10T19:02:42.470Z,52.22
2022-11-10T19:07:55.255Z,46.40
2022-11-10T19:13:06.961Z,41.78
2022-11-10T19:18:18.587Z,49.08
2022-11-10T19:23:31.153Z,48.55
2022-11-10T19:28:43.087Z,45.90
2022-11-10T19:33:56.942Z,47.20
2022-11-10T19:44:20.552Z,50.55
2022-11-10T19:49:32.897Z,53.33
2022-11-10T19:54:45.748Z,56.87
2022-11-10T19:59:57.177Z,59.13
2022-11-10T20:05:16.882Z,103.13
2022-11-10T20:10:31.409Z,85.07
2022-11-10T20:15:44.660Z,72.35
2022-11-10T20:26:28.533Z,55.10
2022-11-10T20:31:39.605Z,56.90
2022-11-10T20:36:52.111Z,60.78
2022-11-10T20:42:03.797Z,58.92
2022-11-10T20:47:15.470Z,55.20
2022-11-10T20:52:27.754Z,54.13
2022-11-10T20:57:39.586Z,56.63
2022-11-10T21:02:52.145Z,56.78
2022-11-10T21:08:04.080Z,59.78
2022-11-10T21:13:15.951Z,58.35
2022-11-10T21:18:34.063Z,59.97
2022-11-10T21:23:46.864Z,57.50
2022-11-10T21:28:59.374Z,56.80
2022-11-10T21:34:11.757Z,52.47
2022-11-10T21:39:23.954Z,54.30
2022-11-10T21:44:36.372Z,56.20
2022-11-10T21:56:49.506Z,57.13
2022-11-10T22:02:05.739Z,59.33
2022-11-10T22:07:23.950Z,58.70
2022-11-10T22:12:54.707Z,59.55
2022-11-10T22:18:32.857Z,57.97
2022-11-10T22:24:07.883Z,56.47
2022-11-10T22:29:30.150Z,52.38
2022-11-10T22:34:43.482Z,57.25
2022-11-10T22:40:13.744Z,60.08
2022-11-10T22:45:25.950Z,52.75
2022-11-10T22:50:38.529Z,54.85
2022-11-10T22:55:50.150Z,55.80
2022-11-10T23:01:11.008Z,53.60
2022-11-10T23:06:23.249Z,53.95
2022-11-10T23:11:34.977Z,55.85
2022-11-10T23:16:46.896Z,55.53
2022-11-10T23:21:58.985Z,55.67
2022-11-10T23:27:11.179Z,61.05
2022-11-10T23:32:23.576Z,62.00
2022-11-10T23:37:35.216Z,60.08
2022-11-10T23:42:47.095Z,63.63
2022-11-10T23:48:04.278Z,71.65
2022-11-10T23:53:18.915Z,83.22
2022-11-10T23:58:32.590Z,82.55
